createdAt,value
2022-09-13T00:01:48.312Z,1.00
2022-09-13T00:04:16.881Z,1.02
2022-09-13T00:06:45.817Z,0.90
2022-09-13T00:09:13.766Z,1.00
2022-09-13T00:11:41.361Z,1.00
2022-09-13T00:14:08.959Z,1.17
2022-09-13T00:16:37.088Z,1.10
2022-09-13T00:19:04.797Z,1.05
2022-09-13T00:21:32.471Z,1.27
2022-09-13T00:24:01.344Z,1.20
2022-09-13T00:26:29.424Z,0.80
2022-09-13T00:28:57.631Z,1.00
2022-09-13T00:31:27.783Z,0.90
2022-09-13T00:33:55.893Z,1.10
2022-09-13T00:36:23.478Z,0.90
2022-09-13T00:38:51.176Z,1.13
2022-09-13T00:41:21.269Z,1.50
2022-09-13T00:43:50.317Z,1.27
2022-09-13T00:46:20.848Z,1.10
2022-09-13T00:48:48.935Z,1.20
2022-09-13T00:51:16.581Z,0.90
2022-09-13T00:53:46.028Z,1.27
2022-09-13T00:56:17.505Z,1.00
2022-09-13T00:58:49.609Z,1.30
2022-09-13T01:01:18.495Z,0.90
2022-09-13T01:03:46.884Z,0.95
2022-09-13T01:06:16.534Z,0.90
2022-09-13T01:08:46.181Z,0.95
2022-09-13T01:11:17.801Z,1.10
2022-09-13T01:13:47.063Z,1.13
2022-09-13T01:16:14.905Z,1.13
2022-09-13T01:18:42.737Z,0.80
2022-09-13T01:21:24.303Z,0.93
2022-09-13T01:24:06.758Z,1.00
2022-09-13T01:26:43.814Z,1.00
2022-09-13T01:29:23.709Z,1.00
2022-09-13T01:31:55.410Z,0.93
2022-09-13T01:34:29.929Z,1.00
2022-09-13T01:37:05.914Z,0.90
2022-09-13T01:39:41.858Z,1.20
2022-09-13T01:42:15.464Z,1.00
2022-09-13T01:44:51.008Z,0.98
2022-09-13T01:47:26.620Z,0.80
2022-09-13T01:50:00.484Z,0.88
2022-09-13T01:52:31.639Z,0.88
2022-09-13T01:55:03.994Z,1.10
2022-09-13T01:57:33.259Z,1.00
2022-09-13T02:00:02.321Z,1.00
2022-09-13T02:02:42.047Z,1.02
2022-09-13T02:05:12.920Z,0.90
2022-09-13T02:07:42.083Z,1.27
2022-09-13T02:10:11.973Z,1.10
2022-09-13T02:12:41.511Z,1.15
2022-09-13T02:15:11.120Z,1.20
2022-09-13T02:17:39.747Z,1.10
2022-09-13T02:20:11.888Z,1.20
2022-09-13T02:22:42.936Z,1.00
2022-09-13T02:25:11.433Z,1.17
2022-09-13T02:27:40.544Z,1.20
2022-09-13T02:30:10.097Z,1.00
2022-09-13T02:32:40.273Z,1.05
2022-09-13T02:35:12.444Z,1.10
2022-09-13T02:37:41.089Z,1.00
2022-09-13T02:40:10.659Z,1.08
2022-09-13T02:42:41.813Z,0.95
2022-09-13T02:45:10.096Z,1.10
2022-09-13T02:47:43.036Z,1.10
2022-09-13T02:50:20.196Z,1.17
2022-09-13T02:52:50.096Z,1.05
2022-09-13T02:55:21.245Z,1.20
2022-09-13T02:57:54.940Z,1.02
2022-09-13T03:00:23.185Z,1.17
2022-09-13T03:02:52.113Z,1.10
2022-09-13T03:05:21.585Z,1.10
2022-09-13T03:07:49.442Z,1.08
2022-09-13T03:10:17.556Z,1.10
2022-09-13T03:12:52.957Z,0.90
2022-09-13T03:15:25.611Z,1.00
2022-09-13T03:17:58.312Z,1.20
2022-09-13T03:20:32.476Z,1.15
2022-09-13T03:23:12.785Z,1.00
2022-09-13T03:25:48.220Z,1.25
2022-09-13T03:28:22.051Z,1.20
2022-09-13T03:30:51.586Z,1.25
2022-09-13T03:33:21.714Z,0.85
2022-09-13T03:35:53.668Z,1.00
2022-09-13T03:38:24.002Z,0.93
2022-09-13T03:40:54.714Z,0.98
2022-09-13T03:43:26.291Z,1.00
2022-09-13T03:45:56.855Z,1.10
2022-09-13T03:48:25.071Z,1.27
2022-09-13T03:50:54.293Z,1.05
2022-09-13T03:53:24.157Z,1.15
2022-09-13T03:55:52.051Z,1.05
2022-09-13T03:58:20.721Z,1.00
2022-09-13T04:00:48.487Z,1.08
2022-09-13T04:03:16.481Z,1.00
2022-09-13T04:05:44.063Z,1.30
2022-09-13T04:08:12.984Z,1.27
2022-09-13T04:10:40.856Z,1.42
2022-09-13T04:13:08.811Z,1.10
2022-09-13T04:15:36.499Z,1.40
2022-09-13T04:18:04.119Z,1.30
2022-09-13T04:20:31.896Z,1.40
2022-09-13T04:22:59.719Z,1.15
2022-09-13T04:25:28.603Z,1.48
2022-09-13T04:27:56.757Z,1.00
2022-09-13T04:30:25.160Z,1.08
2022-09-13T04:32:53.081Z,1.02
2022-09-13T04:35:20.683Z,1.27
2022-09-13T04:37:48.293Z,1.52
2022-09-13T04:40:15.895Z,1.10
2022-09-13T04:42:46.382Z,1.10
2022-09-13T04:45:14.178Z,1.00
2022-09-13T04:47:41.828Z,1.38
2022-09-13T04:50:09.824Z,1.17
2022-09-13T04:52:37.483Z,1.15
2022-09-13T04:55:05.263Z,1.40
2022-09-13T04:57:32.876Z,1.58
2022-09-13T05:00:01.778Z,1.30
2022-09-13T05:02:29.571Z,1.30
2022-09-13T05:04:57.231Z,1.48
2022-09-13T05:07:24.816Z,1.38
2022-09-13T05:09:52.569Z,1.35
2022-09-13T05:12:20.196Z,1.30
2022-09-13T05:14:47.767Z,1.50
2022-09-13T05:17:16.646Z,1.20
2022-09-13T05:19:44.224Z,1.40
2022-09-13T05:22:11.832Z,1.27
2022-09-13T05:24:39.491Z,1.27
2022-09-13T05:27:07.259Z,1.52
2022-09-13T05:29:34.851Z,1.85
2022-09-13T05:32:02.571Z,1.50
2022-09-13T05:34:31.510Z,1.30
2022-09-13T05:36:59.109Z,1.50
2022-09-13T05:39:36.512Z,1.40
2022-09-13T05:42:14.984Z,1.65
2022-09-13T05:44:42.536Z,1.70
2022-09-13T05:47:10.153Z,1.70
2022-09-13T05:49:55.488Z,1.55
2022-09-13T05:52:26.629Z,1.67
2022-09-13T05:54:54.258Z,1.83
2022-09-13T05:57:21.891Z,1.70
2022-09-13T05:59:49.604Z,1.75
2022-09-13T06:02:17.318Z,1.33
2022-09-13T06:04:46.620Z,1.30
2022-09-13T06:07:14.178Z,1.50
2022-09-13T06:09:41.820Z,1.30
2022-09-13T06:12:09.368Z,1.55
2022-09-13T06:14:36.939Z,1.50
2022-09-13T06:17:04.561Z,1.30
2022-09-13T06:19:32.221Z,1.38
2022-09-13T06:22:01.091Z,1.80
2022-09-13T06:24:29.611Z,1.17
2022-09-13T06:26:57.308Z,1.15
2022-09-13T06:29:25.108Z,1.17
2022-09-13T06:31:53.039Z,1.52
2022-09-13T06:34:20.669Z,1.20
2022-09-13T06:36:48.411Z,1.45
2022-09-13T06:39:17.448Z,1.02
2022-09-13T06:41:45.047Z,1.13
2022-09-13T06:44:13.030Z,0.90
2022-09-13T06:46:41.108Z,1.00
2022-09-13T06:49:09.667Z,1.10
2022-09-13T06:51:37.380Z,0.90
2022-09-13T06:54:05.158Z,0.60
2022-09-13T06:56:35.123Z,0.77
2022-09-13T06:59:04.802Z,0.70
2022-09-13T07:01:33.553Z,0.80
2022-09-13T07:04:01.987Z,0.73
2022-09-13T07:06:30.929Z,0.95
2022-09-13T07:08:59.484Z,1.02
2022-09-13T07:11:27.979Z,0.70
2022-09-13T07:13:57.879Z,0.75
2022-09-13T07:16:26.882Z,0.82
2022-09-13T07:18:55.242Z,0.85
2022-09-13T07:21:23.736Z,0.57
2022-09-13T07:24:09.409Z,0.82
2022-09-13T07:26:37.163Z,0.75
2022-09-13T07:29:07.348Z,0.65
2022-09-13T07:31:35.694Z,0.50
2022-09-13T07:34:04.272Z,0.60
2022-09-13T07:36:32.643Z,0.57
2022-09-13T07:39:01.622Z,0.40
2022-09-13T07:41:30.294Z,0.43
2022-09-13T07:43:58.106Z,0.40
2022-09-13T07:46:27.984Z,0.50
2022-09-13T07:48:56.472Z,0.40
2022-09-13T07:51:25.264Z,0.43
2022-09-13T07:53:57.555Z,0.40
2022-09-13T07:56:26.746Z,0.50
2022-09-13T07:58:55.250Z,0.40
2022-09-13T08:01:23.948Z,0.65
2022-09-13T08:03:54.236Z,0.40
2022-09-13T08:09:19.225Z,0.57
2022-09-13T08:11:47.800Z,0.45
2022-09-13T08:14:16.365Z,0.40
2022-09-13T08:16:44.231Z,0.32
2022-09-13T08:19:13.922Z,0.38
2022-09-13T08:21:43.495Z,0.30
2022-09-13T08:24:14.424Z,0.30
2022-09-13T08:26:42.036Z,0.30
2022-09-13T08:29:09.741Z,0.32
2022-09-13T08:31:38.044Z,0.43
2022-09-13T08:34:05.722Z,0.55
2022-09-13T08:36:34.612Z,0.30
2022-09-13T08:39:02.686Z,0.20
2022-09-13T08:41:42.376Z,0.45
2022-09-13T08:44:16.010Z,0.38
2022-09-13T08:46:45.411Z,0.30
2022-09-13T08:49:16.498Z,0.35
2022-09-13T08:51:47.243Z,0.50
2022-09-13T08:54:16.080Z,0.30
2022-09-13T08:56:46.961Z,0.73
2022-09-13T08:59:23.208Z,0.30
2022-09-13T09:01:55.056Z,0.40
2022-09-13T09:04:33.815Z,0.50
2022-09-13T09:07:06.084Z,0.60
2022-09-13T09:09:37.164Z,0.35
2022-09-13T09:12:11.962Z,0.40
2022-09-13T09:14:42.169Z,0.40
2022-09-13T09:17:14.810Z,0.35
2022-09-13T09:19:44.439Z,0.40
2022-09-13T09:22:16.619Z,0.50
2022-09-13T09:24:46.657Z,0.38
2022-09-13T09:27:18.881Z,0.50
2022-09-13T09:29:47.732Z,0.50
2022-09-13T09:32:20.419Z,0.50
2022-09-13T09:34:52.409Z,0.52
2022-09-13T09:37:22.480Z,0.52
2022-09-13T09:39:51.831Z,0.50
2022-09-13T09:42:21.285Z,0.47
2022-09-13T09:44:52.906Z,0.40
2022-09-13T09:47:25.910Z,0.50
2022-09-13T09:50:11.714Z,0.60
2022-09-13T09:52:44.328Z,0.40
2022-09-13T09:55:15.360Z,0.63
2022-09-13T09:57:50.778Z,0.52
2022-09-13T10:00:18.861Z,0.60
2022-09-13T10:02:47.286Z,0.30
2022-09-13T10:05:19.546Z,0.40
2022-09-13T10:07:54.248Z,0.47
2022-09-13T10:10:24.357Z,0.52
2022-09-13T10:12:54.083Z,0.40
2022-09-13T10:15:23.601Z,0.40
2022-09-13T10:18:01.565Z,0.40
2022-09-13T10:20:29.197Z,0.55
2022-09-13T10:23:06.493Z,0.52
2022-09-13T10:25:37.073Z,0.40
2022-09-13T10:28:05.652Z,0.52
2022-09-13T10:30:36.926Z,0.80
2022-09-13T10:33:04.946Z,0.50
2022-09-13T10:35:34.237Z,0.50
2022-09-13T10:38:01.986Z,0.60
2022-09-13T10:40:30.873Z,0.60
2022-09-13T10:43:00.383Z,0.40
2022-09-13T10:45:29.404Z,0.70
2022-09-13T10:48:06.644Z,0.50
2022-09-13T10:50:35.885Z,0.50
2022-09-13T10:53:05.203Z,0.50
2022-09-13T10:55:34.666Z,0.50
2022-09-13T10:58:13.436Z,0.40
2022-09-13T11:00:47.440Z,0.32
2022-09-13T11:03:26.144Z,0.50
2022-09-13T11:05:56.981Z,0.43
2022-09-13T11:08:28.356Z,0.30
2022-09-13T11:11:02.838Z,0.40
2022-09-13T11:13:37.188Z,0.32
2022-09-13T11:16:10.853Z,0.30
2022-09-13T11:18:45.497Z,0.38
2022-09-13T11:21:22.526Z,0.60
2022-09-13T11:23:58.107Z,0.40
2022-09-13T11:26:35.003Z,0.32
2022-09-13T11:29:09.583Z,0.32
2022-09-13T11:31:47.672Z,0.30
2022-09-13T11:34:23.394Z,0.55
2022-09-13T11:36:59.193Z,0.40
2022-09-13T11:39:32.104Z,0.47
2022-09-13T11:42:05.812Z,0.35
2022-09-13T11:44:40.764Z,0.43
2022-09-13T11:47:16.226Z,0.30
2022-09-13T11:49:51.252Z,0.40
2022-09-13T11:52:22.716Z,0.47
2022-09-13T11:54:58.631Z,0.30
2022-09-13T11:57:27.830Z,0.38
2022-09-13T11:59:56.879Z,0.43
2022-09-13T12:02:28.512Z,0.30
2022-09-13T12:05:20.606Z,0.50
2022-09-13T12:07:48.402Z,0.60
2022-09-13T12:10:18.377Z,0.30
2022-09-13T12:15:37.865Z,0.50
2022-09-13T12:18:09.096Z,0.40
2022-09-13T12:20:39.136Z,0.50
2022-09-13T12:23:11.092Z,0.40
2022-09-13T12:25:43.061Z,0.40
2022-09-13T12:28:14.924Z,0.40
2022-09-13T12:30:45.511Z,0.50
2022-09-13T12:33:16.781Z,0.50
2022-09-13T12:35:49.339Z,0.35
2022-09-13T12:38:27.143Z,0.40
2022-09-13T12:41:05.277Z,0.30
2022-09-13T12:43:50.525Z,0.60
2022-09-13T12:46:24.771Z,0.40
2022-09-13T12:49:02.579Z,0.40
2022-09-13T12:51:37.513Z,0.40
2022-09-13T12:54:18.326Z,0.40
2022-09-13T12:56:52.625Z,0.73
2022-09-13T12:59:30.733Z,0.40
2022-09-13T13:02:00.276Z,0.40
2022-09-13T13:04:31.507Z,0.70
2022-09-13T13:07:00.276Z,0.50
2022-09-13T13:09:38.425Z,0.30
2022-09-13T13:12:06.213Z,0.30
2022-09-13T13:14:45.286Z,0.30
2022-09-13T13:17:23.446Z,0.50
2022-09-13T13:19:52.401Z,0.40
2022-09-13T13:22:30.513Z,0.40
2022-09-13T13:24:58.219Z,0.40
2022-09-13T13:27:37.121Z,0.40
2022-09-13T13:30:14.093Z,0.40
2022-09-13T13:33:05.441Z,0.38
2022-09-13T13:35:34.511Z,0.38
2022-09-13T13:38:15.169Z,0.32
2022-09-13T13:40:42.971Z,0.50
2022-09-13T13:43:25.563Z,0.30
2022-09-13T13:45:58.595Z,0.50
2022-09-13T13:48:37.356Z,0.82
2022-09-13T13:51:15.348Z,0.50
2022-09-13T13:53:44.347Z,0.60
2022-09-13T13:56:21.191Z,0.45
2022-09-13T13:58:51.558Z,0.40
2022-09-13T14:01:22.007Z,0.30
2022-09-13T14:03:52.667Z,0.40
2022-09-13T14:06:25.701Z,0.50
2022-09-13T14:11:38.276Z,0.70
2022-09-13T14:14:14.864Z,0.30
2022-09-13T14:16:51.000Z,0.40
2022-09-13T14:19:24.081Z,0.30
2022-09-13T14:22:01.598Z,0.40
2022-09-13T14:24:30.581Z,0.32
2022-09-13T14:27:16.229Z,0.50
2022-09-13T14:29:45.642Z,0.30
2022-09-13T14:32:17.039Z,0.40
2022-09-13T14:34:51.862Z,0.40
2022-09-13T14:37:21.798Z,0.38
2022-09-13T14:39:59.382Z,0.50
2022-09-13T14:42:27.136Z,0.50
2022-09-13T14:44:55.776Z,0.40
2022-09-13T14:47:28.384Z,0.40
2022-09-13T14:50:00.148Z,0.43
2022-09-13T14:52:29.557Z,0.55
2022-09-13T14:55:00.686Z,0.45
2022-09-13T14:57:30.510Z,0.45
2022-09-13T14:59:59.377Z,0.40
2022-09-13T15:02:28.234Z,0.50
2022-09-13T15:04:56.660Z,0.52
2022-09-13T15:07:28.596Z,0.30
2022-09-13T15:10:06.413Z,0.43
2022-09-13T15:12:34.548Z,0.47
2022-09-13T15:15:13.376Z,0.50
2022-09-13T15:17:50.221Z,0.40
2022-09-13T15:20:17.838Z,0.25
2022-09-13T15:22:45.473Z,0.43
2022-09-13T15:25:20.686Z,0.70
2022-09-13T15:27:49.861Z,0.50
2022-09-13T15:30:21.326Z,0.50
2022-09-13T15:32:49.281Z,0.40
2022-09-13T15:35:18.249Z,0.40
2022-09-13T15:37:46.047Z,0.50
2022-09-13T15:40:17.229Z,0.30
2022-09-13T15:42:48.436Z,0.50
2022-09-13T15:45:16.455Z,0.50
2022-09-13T15:47:45.683Z,0.52
2022-09-13T15:50:19.726Z,0.60
2022-09-13T15:52:47.403Z,0.50
2022-09-13T15:55:15.081Z,0.60
2022-09-13T15:57:44.152Z,0.50
2022-09-13T16:00:16.995Z,0.80
2022-09-13T16:02:44.756Z,0.70
2022-09-13T16:05:12.909Z,0.60
2022-09-13T16:07:41.071Z,0.90
2022-09-13T16:10:12.289Z,1.10
2022-09-13T16:12:39.891Z,0.82
2022-09-13T16:15:08.189Z,1.35
2022-09-13T16:17:37.096Z,0.52
2022-09-13T16:20:05.994Z,0.80
2022-09-13T16:22:33.624Z,0.80
2022-09-13T16:25:01.238Z,0.70
2022-09-13T16:27:33.698Z,0.60
2022-09-13T16:30:01.667Z,0.60
2022-09-13T16:32:29.316Z,0.60
2022-09-13T16:34:59.042Z,0.88
2022-09-13T16:37:26.782Z,0.70
2022-09-13T16:39:56.765Z,0.50
2022-09-13T16:42:24.752Z,0.70
2022-09-13T16:44:52.399Z,0.60
2022-09-13T16:47:38.606Z,0.75
2022-09-13T16:50:07.999Z,0.75
2022-09-13T16:52:36.215Z,0.45
2022-09-13T16:55:03.967Z,0.70
2022-09-13T16:57:31.550Z,0.60
2022-09-13T16:59:59.453Z,0.55
2022-09-13T17:02:27.883Z,0.40
2022-09-13T17:04:55.927Z,0.70
2022-09-13T17:07:24.899Z,0.70
2022-09-13T17:09:52.670Z,0.50
2022-09-13T17:12:20.489Z,0.70
2022-09-13T17:14:50.480Z,0.80
2022-09-13T17:17:18.683Z,0.65
2022-09-13T17:19:47.569Z,0.70
2022-09-13T17:22:16.373Z,0.80
2022-09-13T17:24:45.923Z,0.55
2022-09-13T17:27:13.539Z,0.70
2022-09-13T17:30:02.199Z,0.70
2022-09-13T17:32:29.869Z,0.55
2022-09-13T17:35:06.387Z,0.60
2022-09-13T17:37:34.308Z,0.60
2022-09-13T17:40:03.683Z,0.70
2022-09-13T17:42:31.304Z,0.70
2022-09-13T17:44:59.148Z,1.05
2022-09-13T17:47:26.900Z,0.98
2022-09-13T17:49:55.941Z,1.05
2022-09-13T17:52:23.800Z,1.20
2022-09-13T17:54:51.861Z,1.20
2022-09-13T17:57:21.877Z,1.50
2022-09-13T17:59:49.706Z,1.35
2022-09-13T18:02:17.569Z,2.80
2022-09-13T18:04:45.376Z,1.90
2022-09-13T18:07:13.014Z,0.90
2022-09-13T18:09:41.330Z,1.00
2022-09-13T18:12:08.922Z,1.67
2022-09-13T18:14:38.149Z,2.15
2022-09-13T18:17:12.867Z,1.10
2022-09-13T18:19:46.325Z,0.80
2022-09-13T18:22:14.809Z,0.70
2022-09-13T18:24:42.419Z,0.75
2022-09-13T18:27:10.123Z,0.70
2022-09-13T18:29:39.004Z,0.90
2022-09-13T18:32:06.708Z,0.70
2022-09-13T18:34:34.358Z,0.75
2022-09-13T18:37:02.082Z,0.80
2022-09-13T18:39:29.915Z,0.70
2022-09-13T18:41:57.702Z,0.80
2022-09-13T18:44:25.355Z,0.70
2022-09-13T18:46:54.428Z,0.93
2022-09-13T18:49:22.066Z,0.98
2022-09-13T18:51:49.753Z,0.90
2022-09-13T18:54:18.051Z,0.80
2022-09-13T18:56:46.186Z,0.93
2022-09-13T18:59:14.804Z,0.75
2022-09-13T19:01:43.780Z,0.95
2022-09-13T19:04:15.119Z,0.88
2022-09-13T19:06:43.497Z,0.80
2022-09-13T19:09:11.857Z,0.90
2022-09-13T19:11:48.946Z,0.68
2022-09-13T19:14:18.094Z,0.93
2022-09-13T19:16:46.041Z,1.02
2022-09-13T19:19:15.027Z,0.98
2022-09-13T19:21:42.660Z,1.02
2022-09-13T19:24:17.634Z,1.00
2022-09-13T19:26:47.095Z,0.80
2022-09-13T19:29:15.830Z,0.80
2022-09-13T19:31:43.962Z,0.82
2022-09-13T19:34:12.194Z,0.75
2022-09-13T19:36:42.884Z,1.10
2022-09-13T19:39:11.093Z,0.80
2022-09-13T19:41:39.530Z,0.80
2022-09-13T19:44:07.957Z,0.90
2022-09-13T19:46:37.343Z,0.85
2022-09-13T19:49:05.730Z,0.70
2022-09-13T19:51:34.567Z,0.73
2022-09-13T19:54:03.907Z,0.70
2022-09-13T19:56:32.944Z,0.70
2022-09-13T19:59:01.286Z,0.80
2022-09-13T20:01:29.626Z,0.90
2022-09-13T20:03:58.026Z,1.00
2022-09-13T20:06:26.746Z,1.00
2022-09-13T20:08:57.994Z,0.90
2022-09-13T20:11:28.410Z,1.20
2022-09-13T20:13:56.064Z,1.00
2022-09-13T20:16:24.934Z,0.88
2022-09-13T20:18:52.884Z,1.02
2022-09-13T20:21:20.638Z,0.70
2022-09-13T20:23:48.436Z,1.23
2022-09-13T20:26:16.793Z,1.15
2022-09-13T20:28:47.185Z,1.10
2022-09-13T20:31:15.534Z,0.95
2022-09-13T20:33:43.604Z,1.02
2022-09-13T20:36:13.151Z,1.23
2022-09-13T20:38:41.086Z,1.00
2022-09-13T20:41:13.349Z,0.80
2022-09-13T20:43:42.098Z,1.00
2022-09-13T20:46:12.812Z,1.10
2022-09-13T20:48:40.990Z,1.42
2022-09-13T20:51:10.400Z,1.10
2022-09-13T20:53:38.968Z,0.80
2022-09-13T20:56:08.250Z,0.80
2022-09-13T20:58:36.289Z,1.00
2022-09-13T21:01:05.106Z,0.80
2022-09-13T21:03:37.206Z,0.90
2022-09-13T21:06:04.906Z,0.93
2022-09-13T21:08:42.872Z,1.20
2022-09-13T21:11:12.414Z,0.95
2022-09-13T21:13:41.170Z,0.80
2022-09-13T21:16:09.819Z,0.88
2022-09-13T21:18:39.229Z,0.90
2022-09-13T21:21:07.503Z,0.98
2022-09-13T21:23:37.447Z,0.80
2022-09-13T21:26:05.916Z,0.82
2022-09-13T21:28:34.938Z,0.90
2022-09-13T21:31:03.712Z,0.80
2022-09-13T21:33:31.331Z,1.02
2022-09-13T21:36:01.126Z,0.80
2022-09-13T21:38:29.853Z,0.90
2022-09-13T21:40:58.829Z,0.90
2022-09-13T21:43:27.505Z,1.02
2022-09-13T21:46:03.492Z,0.80
2022-09-13T21:48:32.820Z,0.70
2022-09-13T21:51:04.417Z,0.75
2022-09-13T21:53:33.861Z,1.13
2022-09-13T21:56:01.630Z,0.90
2022-09-13T21:58:29.276Z,0.93
2022-09-13T22:01:02.353Z,0.90
2022-09-13T22:03:29.985Z,1.10
2022-09-13T22:05:58.059Z,1.13
2022-09-13T22:08:26.978Z,0.82
2022-09-13T22:10:54.654Z,0.80
2022-09-13T22:13:22.254Z,0.88
2022-09-13T22:15:49.874Z,0.93
2022-09-13T22:18:17.431Z,1.00
2022-09-13T22:20:45.045Z,1.30
2022-09-13T22:23:12.614Z,1.33
2022-09-13T22:25:42.889Z,1.10
2022-09-13T22:28:10.452Z,0.85
2022-09-13T22:30:38.065Z,0.90
2022-09-13T22:33:05.762Z,0.90
2022-09-13T22:35:33.338Z,0.90
2022-09-13T22:38:00.959Z,1.10
2022-09-13T22:40:28.591Z,0.80
2022-09-13T22:42:57.667Z,1.08
2022-09-13T22:45:25.284Z,1.00
2022-09-13T22:47:53.145Z,0.70
2022-09-13T22:50:21.204Z,1.13
2022-09-13T22:52:49.030Z,1.10
2022-09-13T22:55:16.687Z,1.00
2022-09-13T22:57:44.345Z,1.10
2022-09-13T23:00:14.154Z,0.95
2022-09-13T23:02:46.506Z,0.73
2022-09-13T23:05:14.900Z,0.75
2022-09-13T23:07:42.449Z,0.80
2022-09-13T23:10:10.102Z,0.70
2022-09-13T23:12:38.087Z,0.85
2022-09-13T23:15:06.061Z,0.80
2022-09-13T23:17:34.919Z,0.85
2022-09-13T23:20:02.620Z,0.70
2022-09-13T23:22:30.302Z,0.70
2022-09-13T23:24:57.887Z,0.82
2022-09-13T23:27:25.567Z,0.88
2022-09-13T23:29:53.203Z,0.88
2022-09-13T23:32:20.952Z,0.85
2022-09-13T23:34:49.867Z,1.10
2022-09-13T23:37:17.495Z,1.45
2022-09-13T23:39:45.107Z,1.00
2022-09-13T23:42:12.697Z,1.00
2022-09-13T23:44:40.226Z,1.02
2022-09-13T23:47:07.855Z,1.02
2022-09-13T23:49:35.650Z,0.93
2022-09-13T23:52:04.738Z,1.00
2022-09-13T23:54:32.400Z,1.15
2022-09-13T23:57:00.026Z,1.10
2022-09-13T23:59:27.913Z,0.95
